Achim Manz-Bothe 1:30:00 row

22,171

Meters

1:30:00.0

Time

2:01.7

Pace

1437

Calories

139

Heart Rate

Average Watts194
Calories Per Hour958
Stroke Rate28

August 29, 2019 11:07:00

Workout
RowErg

Workout Type
Fixed Time

Weight Class
Hwt

Verified
Yes

Entered
Concept2 Utility

Splits

Time Meters Pace Watts Cal/Hr Cal S/M
1:30:00.0 22,171 2:01.7 194 958 1437 28 139
3:00.0 725 2:04.1 183 920 46 27 117
6:00.0 728 2:03.6 185 920 46 28 120
9:00.0 734 2:02.6 190 940 47 28 124
12:00.0 737 2:02.1 192 960 48 28 126
15:00.0 735 2:02.4 191 940 47 28 128
18:00.0 736 2:02.2 191 940 47 28 130
21:00.0 737 2:02.1 192 960 48 29 132
24:00.0 736 2:02.2 191 940 47 29 134
27:00.0 735 2:02.4 191 940 47 29 135
30:00.0 738 2:01.9 193 960 48 29 136
33:00.0 738 2:01.9 193 960 48 29 136
36:00.0 737 2:02.1 192 960 48 29 137
39:00.0 739 2:01.7 194 960 48 29 138
42:00.0 738 2:01.9 193 960 48 29 139
45:00.0 740 2:01.6 195 960 48 29 141
48:00.0 740 2:01.6 195 960 48 29 141
51:00.0 739 2:01.7 194 960 48 28 143
54:00.0 739 2:01.7 194 960 48 29 142
57:00.0 741 2:01.4 195 960 48 29 144
1:00:00.0 740 2:01.6 195 960 48 29 146
1:03:00.0 741 2:01.4 195 960 48 29 145
1:06:00.0 739 2:01.7 194 960 48 29 145
1:09:00.0 741 2:01.4 195 960 48 29 147
1:12:00.0 744 2:00.9 198 980 49 29 149
1:15:00.0 741 2:01.4 195 960 48 29 149
1:18:00.0 741 2:01.4 195 960 48 29 150
1:21:00.0 745 2:00.8 199 980 49 30 152
1:24:00.0 745 2:00.8 199 980 49 30 154
1:27:00.0 750 2:00.0 203 980 49 30 155
1:30:00.0 752 1:59.6 204 1000 50 30 153